BCCO2: Caney Creek nr Barber, OK

Data processed at Fri Jan 11 2019 23:32


All information presented herein is the property of the government of the United States of America and may be revised or deleted at any time without prior notice.
Dissemination of this information without the expressed written consent of the Public Affairs Office, Tulsa District U.S. Army Corps of Engineers is strictly prohibited.
These data are gathered electronically and, as presented, have not undergone any form of quality control. These data are not guaranteed to be valid or correct.
Go to home page.
Go to station list.
Go to home page.

Downstream station:


Previous Day
Next Day
Current Day
    
SHEF ID:       BCCO2     Caney Creek near Barber, OK
STATION TYPE:  

               PRECIP     STAGE  STAGE(2)  RIV-FLOW  BAT-LOAD
                   in        ft        ft       cfs      volt
              Ccp-Rev   Ccp-Rev   Ccp-Rev   Ccp-Rev   Ccp-Rev
(US/Central)
01/11 00:00      0.01      7.65      7.60       582     12.65
01/11 01:00      0.01      7.67      7.63       597     12.57
01/11 02:00      0.00      7.68      7.62       604     12.57
01/11 03:00      0.00      7.68      7.61       604     12.57
01/11 04:00      0.00      7.64      7.61       574     12.57
01/11 05:00      0.00      7.62      7.59       559     12.57
01/11 06:00      0.01      7.60      7.57       545     12.57
01/11 07:00      0.05      7.69      7.65       612     12.57
01/11 08:00      0.00      7.61      7.59       552     12.57
01/11 09:00      0.00      7.53      7.49       493     12.57
01/11 10:00      0.00      7.65      7.60       582     12.57
01/11 11:00      0.13      7.54      7.53       500     12.57
01/11 12:00      0.16      7.58      7.61       530     12.57
01/11 13:00      0.15      7.57      7.56       522     12.57
01/11 14:00      0.01      7.61      7.54       552     12.65
01/11 15:00      0.01      7.58      7.54       530     12.57
01/11 16:00      0.05      7.56      7.53       515     12.57
01/11 17:00      0.01      7.54      7.51       500     12.57
01/11 18:00      0.00      7.50      7.48       472     12.57
01/11 19:00      0.00      7.54      7.49       500     12.57
01/11 20:00      0.00      7.53      7.47       493     12.57
01/11 21:00      0.00      7.49      7.45       465     12.57
01/11 22:00      0.02      7.47      7.45       451     12.57
01/11 23:00      0.09      7.46      7.44       444     12.57